Time;durP1;ratioP1;P1;durP2;ratioP2;P2;SDS_P1;SDS_P2;PMS_P1;PMS_P2;Temp;Humidity;BMP_temperature;BMP_pressure;BME280_temperature;BME280_humidity;BME280_pressure;Samples;Min_cycle;Max_cycle;Signal;HPM_P1;HPM_P2
2021/10/26 00:01:26;;;;;;;2.10;1.30;;;;;;;;;;5060964;28;20493;-77
2021/10/26 00:03:52;;;;;;;2.83;1.48;;;;;;;;;;5063016;28;20052;-77
2021/10/26 00:06:18;;;;;;;2.58;1.40;;;;;;;;;;5065598;28;20076;-75
2021/10/26 00:08:45;;;;;;;2.42;1.60;;;;;;;;;;5059323;28;20048;-77
2021/10/26 00:11:11;;;;;;;2.88;1.58;;;;;;;;;;5073999;28;20056;-76
2021/10/26 00:13:38;;;;;;;2.72;1.50;;;;;;;;;;5064470;28;20708;-76
2021/10/26 00:16:06;;;;;;;2.05;1.40;;;;;;;;;;5061753;28;20064;-75
2021/10/26 00:18:32;;;;;;;3.35;1.83;;;;;;;;;;5061982;28;20065;-75
2021/10/26 00:20:59;;;;;;;2.38;1.60;;;;;;;;;;5061168;28;20751;-75
2021/10/26 00:23:25;;;;;;;4.38;1.40;;;;;;;;;;5063810;28;20121;-76
2021/10/26 00:25:51;;;;;;;2.42;1.50;;;;;;;;;;5059775;28;20071;-76
2021/10/26 00:28:18;;;;;;;2.08;1.30;;;;;;;;;;5057153;28;20075;-76
2021/10/26 00:30:44;;;;;;;2.55;1.60;;;;;;;;;;5060823;28;20065;-76
2021/10/26 00:33:11;;;;;;;2.08;1.40;;;;;;;;;;5059409;28;20045;-76
2021/10/26 00:35:37;;;;;;;3.30;1.60;;;;;;;;;;5060023;28;20083;-76
2021/10/26 00:38:04;;;;;;;2.22;1.50;;;;;;;;;;5055905;28;20052;-75
2021/10/26 00:40:30;;;;;;;2.10;1.30;;;;;;;;;;5069045;28;21430;-76
2021/10/26 00:42:56;;;;;;;2.30;1.50;;;;;;;;;;5060029;28;20067;-77
2021/10/26 00:45:23;;;;;;;2.22;1.55;;;;;;;;;;5066797;28;20059;-77
2021/10/26 00:47:49;;;;;;;2.40;1.50;;;;;;;;;;5063721;28;20072;-76
2021/10/26 00:50:16;;;;;;;2.13;1.50;;;;;;;;;;5068071;28;20493;-76
2021/10/26 00:52:46;;;;;;;1.90;1.40;;;;;;;;;;5064979;28;20028;-76
2021/10/26 00:55:12;;;;;;;2.40;1.50;;;;;;;;;;5066458;28;20029;-76
2021/10/26 00:57:39;;;;;;;2.30;1.40;;;;;;;;;;5057702;28;20064;-76
2021/10/26 01:00:06;;;;;;;2.65;1.58;;;;;;;;;;5066566;28;20052;-76
2021/10/26 01:02:32;;;;;;;2.00;1.25;;;;;;;;;;5064789;28;20055;-75
2021/10/26 01:04:59;;;;;;;2.13;1.17;;;;;;;;;;5064276;28;20067;-76
2021/10/26 01:07:25;;;;;;;2.15;1.35;;;;;;;;;;5065884;28;20090;-76
2021/10/26 01:09:51;;;;;;;2.03;1.30;;;;;;;;;;5063770;28;20444;-75
2021/10/26 01:12:18;;;;;;;2.72;1.48;;;;;;;;;;5058033;28;20073;-75
2021/10/26 01:14:45;;;;;;;2.58;1.73;;;;;;;;;;5070937;28;20048;-76
2021/10/26 01:17:12;;;;;;;2.15;1.45;;;;;;;;;;5063612;28;20063;-76
2021/10/26 01:19:57;;;;;;;3.45;1.50;;;;;;;;;;5059439;28;20056;-76
2021/10/26 01:22:25;;;;;;;2.08;1.30;;;;;;;;;;5062115;28;20060;-76
2021/10/26 01:24:52;;;;;;;2.28;1.70;;;;;;;;;;5072108;28;20056;-76
2021/10/26 01:27:18;;;;;;;2.28;1.40;;;;;;;;;;5072207;28;20079;-76
2021/10/26 01:29:45;;;;;;;2.55;1.52;;;;;;;;;;5061662;28;20055;-75
2021/10/26 01:32:13;;;;;;;2.17;1.50;;;;;;;;;;5065271;28;20052;-75
2021/10/26 01:34:40;;;;;;;2.53;1.45;;;;;;;;;;5064214;28;20052;-74
2021/10/26 01:37:07;;;;;;;2.67;1.60;;;;;;;;;;5068420;28;21235;-75
2021/10/26 01:39:34;;;;;;;2.42;1.58;;;;;;;;;;5069000;28;20090;-75
2021/10/26 01:42:01;;;;;;;2.28;1.20;;;;;;;;;;5068273;28;20060;-75
2021/10/26 01:44:28;;;;;;;2.75;1.55;;;;;;;;;;5063360;28;20057;-76
2021/10/26 01:46:55;;;;;;;2.70;1.38;;;;;;;;;;5063599;28;20086;-76
2021/10/26 01:49:22;;;;;;;2.42;1.40;;;;;;;;;;5062909;28;20075;-76
2021/10/26 01:51:49;;;;;;;2.30;1.48;;;;;;;;;;5060341;28;20078;-76
2021/10/26 01:54:16;;;;;;;2.10;1.40;;;;;;;;;;5067303;28;20064;-76
2021/10/26 01:56:43;;;;;;;2.03;1.48;;;;;;;;;;5062020;28;20057;-76
2021/10/26 01:59:10;;;;;;;2.22;1.67;;;;;;;;;;5055999;28;20539;-75
2021/10/26 02:01:36;;;;;;;4.15;2.55;;;;;;;;;;5059784;28;20476;-75
2021/10/26 02:04:03;;;;;;;2.47;1.70;;;;;;;;;;5063933;28;20060;-75
2021/10/26 02:06:30;;;;;;;2.75;1.80;;;;;;;;;;5066037;28;20084;-75
2021/10/26 02:08:56;;;;;;;2.53;1.38;;;;;;;;;;5065964;28;20067;-75
2021/10/26 02:11:23;;;;;;;3.00;1.90;;;;;;;;;;5065107;28;20049;-75
2021/10/26 02:13:49;;;;;;;2.97;1.67;;;;;;;;;;5067695;28;20056;-75
2021/10/26 02:16:16;;;;;;;3.05;1.65;;;;;;;;;;5059781;28;20063;-76
2021/10/26 02:18:42;;;;;;;2.85;1.63;;;;;;;;;;5066653;28;20052;-78
2021/10/26 02:21:08;;;;;;;2.47;1.50;;;;;;;;;;5070390;28;20048;-77
2021/10/26 02:23:35;;;;;;;2.42;1.60;;;;;;;;;;5072315;28;20365;-76
2021/10/26 02:26:01;;;;;;;4.03;1.65;;;;;;;;;;5062771;28;20504;-76
2021/10/26 02:28:29;;;;;;;2.75;1.52;;;;;;;;;;5065613;28;20068;-77
2021/10/26 02:30:55;;;;;;;3.13;1.50;;;;;;;;;;5060723;28;20142;-76
2021/10/26 02:33:21;;;;;;;2.40;1.58;;;;;;;;;;5065570;28;20040;-76
2021/10/26 02:35:48;;;;;;;2.40;1.50;;;;;;;;;;5058812;28;20483;-76
2021/10/26 02:38:14;;;;;;;3.33;1.75;;;;;;;;;;5066370;28;20068;-76
2021/10/26 02:40:43;;;;;;;2.60;1.60;;;;;;;;;;5066782;28;20457;-76
2021/10/26 02:43:10;;;;;;;3.55;1.73;;;;;;;;;;5061217;28;20064;-76
2021/10/26 02:45:37;;;;;;;2.78;1.63;;;;;;;;;;5064673;28;20056;-76
2021/10/26 02:48:04;;;;;;;2.58;1.40;;;;;;;;;;5062347;28;20064;-76
2021/10/26 02:50:31;;;;;;;2.53;1.75;;;;;;;;;;5061173;28;20049;-76
2021/10/26 02:52:57;;;;;;;3.17;1.70;;;;;;;;;;5064206;28;20060;-75
2021/10/26 02:55:23;;;;;;;2.60;1.50;;;;;;;;;;5067830;28;20060;-78
2021/10/26 02:57:50;;;;;;;1.88;1.50;;;;;;;;;;5065408;28;20539;-76
2021/10/26 03:00:16;;;;;;;2.67;1.55;;;;;;;;;;5063588;28;20057;-76
2021/10/26 03:02:43;;;;;;;2.38;1.65;;;;;;;;;;5064754;28;20068;-78
2021/10/26 03:05:09;;;;;;;2.70;1.75;;;;;;;;;;5065582;28;20067;-76
2021/10/26 03:07:42;;;;;;;2.33;1.52;;;;;;;;;;5066855;28;20068;-76
2021/10/26 03:10:10;;;;;;;2.65;1.58;;;;;;;;;;5073232;28;20033;-76
2021/10/26 03:12:36;;;;;;;2.50;1.42;;;;;;;;;;5067404;28;20565;-76
2021/10/26 03:15:04;;;;;;;2.90;1.60;;;;;;;;;;5063970;28;20052;-76
2021/10/26 03:17:30;;;;;;;2.38;1.52;;;;;;;;;;5065418;28;20917;-75
2021/10/26 03:19:57;;;;;;;3.58;1.60;;;;;;;;;;5063409;28;20091;-77
2021/10/26 03:22:23;;;;;;;2.40;1.58;;;;;;;;;;5063805;28;20052;-76
2021/10/26 03:24:50;;;;;;;1.90;1.30;;;;;;;;;;5065058;28;20598;-75
2021/10/26 03:27:16;;;;;;;3.60;1.42;;;;;;;;;;5062725;28;20060;-77
2021/10/26 03:29:43;;;;;;;2.85;1.60;;;;;;;;;;5060531;28;20084;-77
2021/10/26 03:32:09;;;;;;;2.90;1.65;;;;;;;;;;5059135;28;20087;-77
2021/10/26 03:34:36;;;;;;;2.88;1.38;;;;;;;;;;5063377;28;20044;-77
2021/10/26 03:37:04;;;;;;;2.40;1.52;;;;;;;;;;5059605;28;20122;-75
2021/10/26 03:39:31;;;;;;;2.53;1.48;;;;;;;;;;5056888;28;20508;-75
2021/10/26 03:41:58;;;;;;;3.13;1.48;;;;;;;;;;5065828;28;20629;-75
2021/10/26 03:44:24;;;;;;;2.67;1.40;;;;;;;;;;5055338;28;20079;-74
2021/10/26 03:46:51;;;;;;;2.05;1.50;;;;;;;;;;5064090;28;20063;-76
2021/10/26 03:49:17;;;;;;;1.85;1.20;;;;;;;;;;5060347;28;20060;-76
2021/10/26 03:51:44;;;;;;;2.35;1.58;;;;;;;;;;5057456;28;20041;-77
2021/10/26 03:54:11;;;;;;;2.63;1.60;;;;;;;;;;5066018;28;20101;-76
2021/10/26 03:56:37;;;;;;;2.53;1.50;;;;;;;;;;5063810;28;20064;-75
2021/10/26 03:59:05;;;;;;;3.35;2.13;;;;;;;;;;5053852;28;20068;-75
2021/10/26 04:01:33;;;;;;;3.30;1.48;;;;;;;;;;5063943;28;20060;-76
2021/10/26 04:03:59;;;;;;;1.92;1.50;;;;;;;;;;5059179;28;20069;-76
2021/10/26 04:06:27;;;;;;;2.88;1.65;;;;;;;;;;5056023;28;20063;-76
2021/10/26 04:11:22;;;;;;;2.08;1.25;;;;;;;;;;5057788;28;20052;-75
2021/10/26 04:13:49;;;;;;;2.42;1.45;;;;;;;;;;5053745;28;20059;-76
2021/10/26 04:16:16;;;;;;;2.33;1.63;;;;;;;;;;5060730;28;20061;-76
2021/10/26 04:18:42;;;;;;;2.95;1.60;;;;;;;;;;5053753;28;20064;-75
2021/10/26 04:21:10;;;;;;;2.85;1.55;;;;;;;;;;5061448;28;20064;-75
2021/10/26 04:23:36;;;;;;;2.08;1.20;;;;;;;;;;5060562;28;20048;-75
2021/10/26 04:26:03;;;;;;;2.20;1.60;;;;;;;;;;5058507;28;20071;-75
2021/10/26 04:28:30;;;;;;;3.08;1.60;;;;;;;;;;5063320;28;20064;-75
2021/10/26 04:31:02;;;;;;;2.90;1.70;;;;;;;;;;5060015;28;20064;-75
2021/10/26 04:33:29;;;;;;;2.20;1.52;;;;;;;;;;5059925;28;20060;-75
2021/10/26 04:35:56;;;;;;;2.70;1.55;;;;;;;;;;5062480;28;20065;-75
2021/10/26 04:38:23;;;;;;;3.60;1.65;;;;;;;;;;5063969;28;20060;-75
2021/10/26 04:40:49;;;;;;;3.15;1.38;;;;;;;;;;5064403;28;20076;-75
2021/10/26 04:43:19;;;;;;;3.47;1.85;;;;;;;;;;5062268;28;20068;-76
2021/10/26 04:45:47;;;;;;;2.53;1.45;;;;;;;;;;5062197;28;20409;-75
2021/10/26 04:48:16;;;;;;;2.85;1.30;;;;;;;;;;5062382;28;20068;-75
2021/10/26 04:50:42;;;;;;;2.45;1.33;;;;;;;;;;5058978;28;20037;-75
2021/10/26 04:53:09;;;;;;;2.38;1.40;;;;;;;;;;5060144;28;20063;-75
2021/10/26 04:55:35;;;;;;;2.45;1.35;;;;;;;;;;5064446;28;20045;-75
2021/10/26 04:58:01;;;;;;;2.60;1.50;;;;;;;;;;5060643;28;20052;-74
2021/10/26 05:00:30;;;;;;;2.10;1.50;;;;;;;;;;5067873;28;20122;-75
2021/10/26 05:02:56;;;;;;;3.85;1.30;;;;;;;;;;5065819;28;20048;-75
2021/10/26 05:05:23;;;;;;;2.60;1.50;;;;;;;;;;5065178;28;20526;-75
2021/10/26 05:07:50;;;;;;;2.67;1.33;;;;;;;;;;5064151;28;20072;-76
2021/10/26 05:10:17;;;;;;;2.15;1.50;;;;;;;;;;5066174;28;20706;-75
2021/10/26 05:12:43;;;;;;;3.08;1.42;;;;;;;;;;5066727;28;20048;-78
2021/10/26 05:15:10;;;;;;;2.60;1.40;;;;;;;;;;5063409;28;20511;-76
2021/10/26 05:17:39;;;;;;;3.20;1.60;;;;;;;;;;5059872;28;20121;-76
2021/10/26 05:20:06;;;;;;;2.30;1.50;;;;;;;;;;5062860;28;20048;-76
2021/10/26 05:22:33;;;;;;;2.67;1.55;;;;;;;;;;5063579;28;20112;-77
2021/10/26 05:24:59;;;;;;;2.30;1.50;;;;;;;;;;5056274;28;20061;-76
2021/10/26 05:27:26;;;;;;;2.88;1.52;;;;;;;;;;5063809;28;20087;-76
2021/10/26 05:29:53;;;;;;;2.22;1.30;;;;;;;;;;5068006;28;20090;-76
2021/10/26 05:32:20;;;;;;;1.90;1.30;;;;;;;;;;5067136;28;20068;-75
2021/10/26 05:34:46;;;;;;;3.50;1.40;;;;;;;;;;5060220;28;20067;-76
2021/10/26 05:37:14;;;;;;;2.50;1.60;;;;;;;;;;5058226;28;20067;-76
2021/10/26 05:39:41;;;;;;;2.58;1.55;;;;;;;;;;5071913;28;20060;-76
2021/10/26 05:42:08;;;;;;;2.50;1.60;;;;;;;;;;5064422;28;20459;-76
2021/10/26 05:44:34;;;;;;;2.22;1.30;;;;;;;;;;5068289;28;20075;-76
2021/10/26 05:47:01;;;;;;;3.22;1.42;;;;;;;;;;5059372;28;20056;-77
2021/10/26 05:49:28;;;;;;;1.98;1.38;;;;;;;;;;5064224;28;20114;-76
2021/10/26 05:51:54;;;;;;;1.77;1.27;;;;;;;;;;5065620;28;20074;-76
2021/10/26 05:54:20;;;;;;;2.70;1.50;;;;;;;;;;5067534;28;20538;-75
2021/10/26 05:56:47;;;;;;;3.22;1.60;;;;;;;;;;5069790;28;20068;-75
2021/10/26 05:59:13;;;;;;;2.47;1.70;;;;;;;;;;5062624;28;20048;-75
2021/10/26 06:01:40;;;;;;;2.90;1.42;;;;;;;;;;5056962;28;20060;-75
2021/10/26 06:04:06;;;;;;;2.92;1.55;;;;;;;;;;5061118;28;20110;-76
2021/10/26 06:06:33;;;;;;;2.10;1.50;;;;;;;;;;5066242;28;20053;-75
2021/10/26 06:09:00;;;;;;;1.77;1.20;;;;;;;;;;5059550;28;20077;-76
2021/10/26 06:11:27;;;;;;;2.28;1.40;;;;;;;;;;5068171;28;20518;-76
2021/10/26 06:14:01;;;;;;;2.25;1.50;;;;;;;;;;5060178;28;20210;-77
2021/10/26 06:16:28;;;;;;;1.98;1.38;;;;;;;;;;5056865;28;20617;-76
2021/10/26 06:18:54;;;;;;;2.55;1.30;;;;;;;;;;5066137;28;20530;-76
2021/10/26 06:21:21;;;;;;;2.08;1.40;;;;;;;;;;5063374;28;20048;-74
2021/10/26 06:23:47;;;;;;;5.22;1.40;;;;;;;;;;5063640;28;20052;-75
2021/10/26 06:26:14;;;;;;;2.75;1.40;;;;;;;;;;5063383;28;20048;-75
2021/10/26 06:28:40;;;;;;;2.42;1.48;;;;;;;;;;5067011;28;20471;-75
2021/10/26 06:31:06;;;;;;;2.45;1.30;;;;;;;;;;5066250;28;20060;-75
2021/10/26 06:33:33;;;;;;;2.60;1.50;;;;;;;;;;5067057;28;20064;-76
2021/10/26 06:35:59;;;;;;;2.17;1.40;;;;;;;;;;5069444;28;20064;-76
2021/10/26 06:38:26;;;;;;;2.38;1.58;;;;;;;;;;5069337;28;20064;-76
2021/10/26 06:40:52;;;;;;;2.58;1.40;;;;;;;;;;5066866;28;20052;-75
2021/10/26 06:43:19;;;;;;;2.70;1.23;;;;;;;;;;5066087;28;20121;-74
2021/10/26 06:45:45;;;;;;;1.88;1.40;;;;;;;;;;5064510;28;20060;-74
2021/10/26 06:48:12;;;;;;;1.58;1.10;;;;;;;;;;5063903;28;20512;-75
2021/10/26 06:50:38;;;;;;;2.53;1.35;;;;;;;;;;5070490;28;20057;-75
2021/10/26 06:53:05;;;;;;;2.85;1.48;;;;;;;;;;5066176;28;20404;-75
2021/10/26 06:55:31;;;;;;;2.85;1.20;;;;;;;;;;5064087;28;20063;-75
2021/10/26 06:57:58;;;;;;;1.73;1.38;;;;;;;;;;5077924;28;20066;-75
2021/10/26 07:00:25;;;;;;;1.67;1.20;;;;;;;;;;5066831;28;20117;-76
2021/10/26 07:02:52;;;;;;;3.47;1.85;;;;;;;;;;5074864;28;20052;-75
2021/10/26 07:05:20;;;;;;;2.33;1.45;;;;;;;;;;5070386;28;20057;-74
2021/10/26 07:07:46;;;;;;;1.88;1.23;;;;;;;;;;5068930;28;20080;-76
2021/10/26 07:10:14;;;;;;;1.90;1.23;;;;;;;;;;5062396;28;20093;-75
2021/10/26 07:12:41;;;;;;;2.42;1.20;;;;;;;;;;5070436;28;20072;-75
2021/10/26 07:15:08;;;;;;;2.63;1.50;;;;;;;;;;5067691;28;20059;-75
2021/10/26 07:17:35;;;;;;;5.05;1.40;;;;;;;;;;5064489;28;20504;-75
2021/10/26 07:20:02;;;;;;;2.10;1.23;;;;;;;;;;5067979;28;20503;-75
2021/10/26 07:22:28;;;;;;;2.53;1.20;;;;;;;;;;5068294;28;20049;-75
2021/10/26 07:25:02;;;;;;;1.85;1.30;;;;;;;;;;5065371;28;20068;-75
2021/10/26 07:27:28;;;;;;;2.13;1.25;;;;;;;;;;5072529;28;20072;-75
2021/10/26 07:29:54;;;;;;;1.90;1.35;;;;;;;;;;5070311;28;20110;-74
2021/10/26 07:32:21;;;;;;;1.95;1.23;;;;;;;;;;5068332;28;20495;-74
2021/10/26 07:34:48;;;;;;;1.77;1.30;;;;;;;;;;5058043;28;20067;-74
2021/10/26 07:37:15;;;;;;;2.20;1.30;;;;;;;;;;5057638;28;20613;-73
2021/10/26 07:39:47;;;;;;;2.47;1.20;;;;;;;;;;5065950;28;20056;-74
2021/10/26 07:42:13;;;;;;;;;;;;;;;;;;5061839;28;20142;-75
2021/10/26 07:44:39;;;;;;;3.22;1.20;;;;;;;;;;5061175;28;20005;-75
2021/10/26 07:47:06;;;;;;;2.30;1.35;;;;;;;;;;5060886;28;20059;-76
2021/10/26 07:49:33;;;;;;;2.67;1.40;;;;;;;;;;5078066;28;20072;-75
2021/10/26 07:52:00;;;;;;;3.70;1.58;;;;;;;;;;5063008;28;20101;-75
2021/10/26 07:54:27;;;;;;;3.30;1.40;;;;;;;;;;5063919;28;20060;-74
2021/10/26 07:56:53;;;;;;;1.98;1.35;;;;;;;;;;5066352;28;20048;-75
2021/10/26 07:59:23;;;;;;;3.00;1.20;;;;;;;;;;5069260;28;20558;-75
2021/10/26 08:01:50;;;;;;;2.08;1.30;;;;;;;;;;5057600;28;20157;-75
2021/10/26 08:04:17;;;;;;;2.72;1.40;;;;;;;;;;5065210;28;20440;-75
2021/10/26 08:06:45;;;;;;;2.55;1.25;;;;;;;;;;5057571;28;20141;-75
2021/10/26 08:09:12;;;;;;;3.53;1.40;;;;;;;;;;5061022;28;20302;-75
2021/10/26 08:11:38;;;;;;;2.17;1.30;;;;;;;;;;5071077;28;20480;-75
2021/10/26 08:14:05;;;;;;;1.88;1.20;;;;;;;;;;5064242;28;20064;-75
2021/10/26 08:16:31;;;;;;;2.08;1.30;;;;;;;;;;5052511;28;20449;-75
2021/10/26 08:18:59;;;;;;;2.25;1.50;;;;;;;;;;5059712;28;20060;-75
2021/10/26 08:21:25;;;;;;;2.47;1.38;;;;;;;;;;5062936;28;20071;-74
2021/10/26 08:23:52;;;;;;;2.08;1.40;;;;;;;;;;5062763;28;20094;-75
2021/10/26 08:26:35;;;;;;;3.00;1.42;;;;;;;;;;5053931;28;20052;-75
2021/10/26 08:29:17;;;;;;;2.17;1.40;;;;;;;;;;5073049;28;20077;-75
2021/10/26 08:32:06;;;;;;;2.58;1.40;;;;;;;;;;5061247;28;20048;-78
2021/10/26 08:37:12;;;;;;;2.30;1.40;;;;;;;;;;5064606;28;20325;-75
2021/10/26 08:39:41;;;;;;;2.33;1.30;;;;;;;;;;5068350;28;20052;-74
2021/10/26 08:42:11;;;;;;;2.17;1.33;;;;;;;;;;5064308;28;20068;-74
2021/10/26 08:44:38;;;;;;;3.85;1.40;;;;;;;;;;5062705;28;20068;-74
2021/10/26 08:47:04;;;;;;;1.92;1.17;;;;;;;;;;5062149;28;20040;-75
2021/10/26 08:49:33;;;;;;;1.88;1.20;;;;;;;;;;5065348;28;20052;-74
2021/10/26 08:52:01;;;;;;;1.85;1.25;;;;;;;;;;5069636;28;20107;-75
2021/10/26 08:54:28;;;;;;;2.30;1.40;;;;;;;;;;5069562;28;20036;-75
2021/10/26 08:56:54;;;;;;;2.22;1.50;;;;;;;;;;5053347;28;20060;-74
2021/10/26 08:59:21;;;;;;;2.03;1.27;;;;;;;;;;5059124;28;20505;-75
2021/10/26 09:01:48;;;;;;;2.03;1.40;;;;;;;;;;5069512;28;20059;-77
2021/10/26 09:04:15;;;;;;;2.35;1.50;;;;;;;;;;5060098;28;20424;-75
2021/10/26 09:06:48;;;;;;;2.75;1.20;;;;;;;;;;5058430;28;20029;-75
2021/10/26 09:09:16;;;;;;;2.35;1.20;;;;;;;;;;5069559;28;20065;-75
2021/10/26 09:16:39;;;;;;;2.35;1.27;;;;;;;;;;5068437;28;20090;-74
2021/10/26 09:17:26;;;;;;;2.13;1.30;;;;;;;;;;5048984;28;20524;-75
2021/10/26 09:19:54;;;;;;;2.65;1.40;;;;;;;;;;5051805;28;20057;-76
2021/10/26 09:22:21;;;;;;;2.35;1.25;;;;;;;;;;5059851;28;20056;-76
2021/10/26 09:24:54;;;;;;;2.60;1.40;;;;;;;;;;5058085;28;20557;-75
2021/10/26 09:27:21;;;;;;;1.42;1.00;;;;;;;;;;5063008;28;20130;-75
2021/10/26 09:29:49;;;;;;;2.17;1.20;;;;;;;;;;5056041;28;20072;-75
2021/10/26 09:32:17;;;;;;;1.98;1.20;;;;;;;;;;5067246;28;20515;-75
2021/10/26 09:34:57;;;;;;;2.25;1.30;;;;;;;;;;5066026;28;20036;-75
2021/10/26 09:37:25;;;;;;;2.30;1.40;;;;;;;;;;5065264;28;20293;-75
2021/10/26 09:39:56;;;;;;;2.22;1.27;;;;;;;;;;5058774;28;20113;-75
2021/10/26 09:42:23;;;;;;;1.90;1.20;;;;;;;;;;5060294;28;20161;-76
2021/10/26 09:44:51;;;;;;;1.85;1.20;;;;;;;;;;5064164;28;20071;-75
2021/10/26 09:47:20;;;;;;;1.77;1.30;;;;;;;;;;5064658;28;20060;-76
2021/10/26 09:49:52;;;;;;;2.38;1.38;;;;;;;;;;5064198;28;20049;-76
2021/10/26 09:52:22;;;;;;;1.98;1.20;;;;;;;;;;5067898;28;20432;-75
2021/10/26 09:55:18;;;;;;;2.90;1.17;;;;;;;;;;5063066;28;20118;-76
2021/10/26 09:57:47;;;;;;;1.75;1.13;;;;;;;;;;5060294;28;20518;-76
2021/10/26 10:00:18;;;;;;;2.65;1.30;;;;;;;;;;5056057;28;20051;-75
2021/10/26 10:02:44;;;;;;;2.85;1.38;;;;;;;;;;5073719;28;20051;-76
2021/10/26 10:05:21;;;;;;;2.58;1.42;;;;;;;;;;5056816;28;20053;-75
2021/10/26 10:07:47;;;;;;;1.63;1.10;;;;;;;;;;5069293;28;20071;-74
2021/10/26 10:10:13;;;;;;;2.08;1.20;;;;;;;;;;5063778;28;20056;-75
2021/10/26 10:12:42;;;;;;;1.85;1.25;;;;;;;;;;5064248;28;20051;-75
2021/10/26 10:15:09;;;;;;;2.85;1.30;;;;;;;;;;5064027;28;20166;-75
2021/10/26 10:17:36;;;;;;;2.40;1.42;;;;;;;;;;5072563;28;20125;-75
2021/10/26 10:20:07;;;;;;;1.73;1.15;;;;;;;;;;5067014;28;20089;-75
2021/10/26 10:22:34;;;;;;;1.65;1.10;;;;;;;;;;5052643;28;20053;-75
2021/10/26 10:25:03;;;;;;;1.90;1.10;;;;;;;;;;5056347;28;20067;-75
2021/10/26 10:27:33;;;;;;;2.38;1.27;;;;;;;;;;5063912;28;20068;-75
2021/10/26 10:30:00;;;;;;;1.45;1.02;;;;;;;;;;5067418;28;20067;-74
2021/10/26 10:32:28;;;;;;;1.30;0.82;;;;;;;;;;5060990;28;20060;-74
2021/10/26 10:34:55;;;;;;;2.78;1.30;;;;;;;;;;5061416;28;20061;-75
2021/10/26 10:37:23;;;;;;;2.05;1.20;;;;;;;;;;5053400;28;20085;-75
2021/10/26 10:39:50;;;;;;;2.30;0.98;;;;;;;;;;5056570;28;20495;-76
2021/10/26 10:42:30;;;;;;;1.90;1.08;;;;;;;;;;5067811;28;20130;-75
2021/10/26 10:45:01;;;;;;;1.88;1.23;;;;;;;;;;5067652;28;20032;-75
2021/10/26 10:47:54;;;;;;;2.17;1.15;;;;;;;;;;5067840;28;20044;-75
2021/10/26 10:50:26;;;;;;;1.73;1.05;;;;;;;;;;5054522;28;21348;-75
2021/10/26 10:53:24;;;;;;;1.77;1.13;;;;;;;;;;5055842;28;20500;-75
2021/10/26 10:55:51;;;;;;;1.88;1.00;;;;;;;;;;5054840;28;20121;-76
2021/10/26 10:58:25;;;;;;;1.63;1.00;;;;;;;;;;5065513;28;20573;-76
2021/10/26 11:00:53;;;;;;;1.85;1.20;;;;;;;;;;5057112;28;20065;-76
2021/10/26 11:03:32;;;;;;;3.72;1.35;;;;;;;;;;5061763;28;20126;-76
2021/10/26 11:06:02;;;;;;;2.00;1.30;;;;;;;;;;5058858;28;20564;-76
2021/10/26 11:08:57;;;;;;;1.80;1.10;;;;;;;;;;5062099;28;20060;-75
2021/10/26 11:11:24;;;;;;;1.80;1.00;;;;;;;;;;5054345;28;20064;-75
2021/10/26 11:14:10;;;;;;;2.15;1.00;;;;;;;;;;5057656;28;20489;-76
2021/10/26 11:16:37;;;;;;;2.10;1.20;;;;;;;;;;5063246;28;20581;-76
2021/10/26 11:19:03;;;;;;;2.10;1.27;;;;;;;;;;5054273;28;20056;-75
2021/10/26 11:21:33;;;;;;;1.40;1.00;;;;;;;;;;5056934;28;20067;-75
2021/10/26 11:24:01;;;;;;;2.20;1.38;;;;;;;;;;5060109;28;20068;-75
2021/10/26 11:26:42;;;;;;;1.80;1.10;;;;;;;;;;5057023;28;20060;-76
2021/10/26 11:29:15;;;;;;;2.55;1.13;;;;;;;;;;5060008;28;20056;-75
2021/10/26 11:31:49;;;;;;;2.63;1.20;;;;;;;;;;5058479;28;20598;-75
2021/10/26 11:34:16;;;;;;;1.83;1.10;;;;;;;;;;5060828;28;20056;-74
2021/10/26 11:36:43;;;;;;;3.60;1.10;;;;;;;;;;5063080;28;20110;-75
2021/10/26 11:39:13;;;;;;;3.60;1.20;;;;;;;;;;5062540;28;20865;-76
2021/10/26 11:41:41;;;;;;;2.45;1.20;;;;;;;;;;5066750;28;20057;-75
2021/10/26 11:44:12;;;;;;;2.50;1.10;;;;;;;;;;5065802;28;20133;-74
2021/10/26 11:46:43;;;;;;;2.45;1.13;;;;;;;;;;5063265;28;20496;-74
2021/10/26 11:49:18;;;;;;;2.40;1.20;;;;;;;;;;5064042;28;20522;-75
2021/10/26 11:51:57;;;;;;;1.77;1.08;;;;;;;;;;5063127;28;20055;-78
2021/10/26 11:54:25;;;;;;;4.20;1.25;;;;;;;;;;5060262;28;20090;-75
2021/10/26 11:56:52;;;;;;;3.83;1.10;;;;;;;;;;5065120;28;20048;-76
2021/10/26 11:59:20;;;;;;;2.42;1.05;;;;;;;;;;5062016;28;20089;-75
2021/10/26 12:01:49;;;;;;;2.60;1.20;;;;;;;;;;5067117;28;20052;-76
2021/10/26 12:04:26;;;;;;;3.08;1.13;;;;;;;;;;5060574;28;20057;-76
2021/10/26 12:06:57;;;;;;;1.98;0.90;;;;;;;;;;5069266;28;20087;-75
2021/10/26 12:09:25;;;;;;;5.35;1.08;;;;;;;;;;5061216;28;20117;-77
2021/10/26 12:11:53;;;;;;;2.80;1.10;;;;;;;;;;5065523;28;20130;-76
2021/10/26 12:14:21;;;;;;;3.55;1.13;;;;;;;;;;5064132;28;20049;-77
2021/10/26 12:17:06;;;;;;;5.00;1.00;;;;;;;;;;5064233;28;20097;-77
2021/10/26 12:19:33;;;;;;;3.30;1.25;;;;;;;;;;5059979;28;20061;-77
2021/10/26 12:22:00;;;;;;;1.45;0.90;;;;;;;;;;5064993;28;20056;-77
2021/10/26 12:24:29;;;;;;;1.90;0.90;;;;;;;;;;5064126;28;20060;-77
2021/10/26 12:27:07;;;;;;;3.33;1.00;;;;;;;;;;5058887;28;20736;-77
2021/10/26 12:29:35;;;;;;;2.88;1.02;;;;;;;;;;5053926;28;20068;-77
2021/10/26 12:32:03;;;;;;;2.13;1.10;;;;;;;;;;5064277;28;20066;-76
2021/10/26 12:34:42;;;;;;;2.92;1.15;;;;;;;;;;5058333;28;20090;-77
2021/10/26 12:37:21;;;;;;;2.78;1.15;;;;;;;;;;5065562;28;20098;-77
2021/10/26 12:39:51;;;;;;;2.92;1.10;;;;;;;;;;5064269;28;20470;-77
2021/10/26 12:42:34;;;;;;;1.98;0.90;;;;;;;;;;5063058;28;20056;-76
2021/10/26 12:45:02;;;;;;;3.90;1.08;;;;;;;;;;5059836;28;20052;-76
2021/10/26 12:47:31;;;;;;;2.35;1.02;;;;;;;;;;5064095;28;20061;-76
2021/10/26 12:49:57;;;;;;;3.28;1.15;;;;;;;;;;5064206;28;20567;-77
2021/10/26 12:52:24;;;;;;;3.20;1.02;;;;;;;;;;5061126;28;20044;-76
2021/10/26 12:54:51;;;;;;;2.60;1.00;;;;;;;;;;5064143;28;20059;-76
2021/10/26 12:57:34;;;;;;;4.13;1.10;;;;;;;;;;5058809;28;20514;-76
2021/10/26 13:00:19;;;;;;;1.95;1.00;;;;;;;;;;5060566;28;20432;-76
2021/10/26 13:02:46;;;;;;;3.08;1.02;;;;;;;;;;5065761;28;20032;-76
2021/10/26 13:05:12;;;;;;;2.55;1.08;;;;;;;;;;5057508;28;20064;-75
2021/10/26 13:07:39;;;;;;;1.88;0.90;;;;;;;;;;5061697;28;20036;-76
2021/10/26 13:10:08;;;;;;;2.50;0.93;;;;;;;;;;5058923;28;20067;-76
2021/10/26 13:12:39;;;;;;;4.25;1.20;;;;;;;;;;5065862;28;20056;-76
2021/10/26 13:15:25;;;;;;;2.50;1.00;;;;;;;;;;5058653;28;20436;-76
2021/10/26 13:18:01;;;;;;;2.53;0.90;;;;;;;;;;5062043;28;20056;-76
2021/10/26 13:20:46;;;;;;;3.33;1.20;;;;;;;;;;5059379;28;20594;-75
2021/10/26 13:23:12;;;;;;;3.15;0.90;;;;;;;;;;5059872;28;21246;-76
2021/10/26 13:25:47;;;;;;;1.98;0.85;;;;;;;;;;5066607;28;20061;-75
2021/10/26 13:28:14;;;;;;;2.90;0.98;;;;;;;;;;5058198;28;21845;-75
2021/10/26 13:31:00;;;;;;;4.07;0.95;;;;;;;;;;5061258;28;20064;-75
2021/10/26 13:33:28;;;;;;;2.03;1.00;;;;;;;;;;5064155;28;21515;-74
2021/10/26 13:35:56;;;;;;;1.88;0.90;;;;;;;;;;5061502;28;20487;-75
2021/10/26 13:38:23;;;;;;;1.58;0.70;;;;;;;;;;5064688;28;20412;-75
2021/10/26 13:40:50;;;;;;;2.20;0.98;;;;;;;;;;5061229;28;20060;-75
2021/10/26 13:43:17;;;;;;;2.42;0.95;;;;;;;;;;5065454;28;20049;-76
2021/10/26 13:45:43;;;;;;;2.90;1.10;;;;;;;;;;5062297;28;20056;-75
2021/10/26 13:48:12;;;;;;;2.70;1.00;;;;;;;;;;5053380;28;20475;-76
2021/10/26 13:50:40;;;;;;;3.20;0.98;;;;;;;;;;5055729;28;20049;-75
2021/10/26 13:53:08;;;;;;;1.48;0.80;;;;;;;;;;5064027;28;20117;-75
2021/10/26 13:55:34;;;;;;;2.33;0.90;;;;;;;;;;5055959;28;20061;-78
2021/10/26 13:58:01;;;;;;;1.80;0.90;;;;;;;;;;5066231;28;20053;-77
2021/10/26 14:00:27;;;;;;;1.73;0.80;;;;;;;;;;5059971;28;20137;-76
2021/10/26 14:02:53;;;;;;;1.77;0.93;;;;;;;;;;5059085;28;20134;-76
2021/10/26 14:05:20;;;;;;;1.75;1.05;;;;;;;;;;5068516;28;20067;-76
2021/10/26 14:07:46;;;;;;;1.63;0.70;;;;;;;;;;5067953;28;20433;-77
2021/10/26 14:10:13;;;;;;;3.28;0.90;;;;;;;;;;5056844;28;20061;-76
2021/10/26 14:12:40;;;;;;;4.13;0.80;;;;;;;;;;5060839;28;20060;-77
2021/10/26 14:15:08;;;;;;;4.28;1.00;;;;;;;;;;5068876;28;20064;-76
2021/10/26 14:17:35;;;;;;;2.05;0.80;;;;;;;;;;5070743;28;20100;-76
2021/10/26 14:20:02;;;;;;;2.80;0.70;;;;;;;;;;5074722;28;20052;-77
2021/10/26 14:22:31;;;;;;;1.50;0.60;;;;;;;;;;5068627;28;20120;-77
2021/10/26 14:24:57;;;;;;;1.98;0.95;;;;;;;;;;5072727;28;20148;-74
2021/10/26 14:27:24;;;;;;;1.50;0.60;;;;;;;;;;5063929;28;20067;-77
2021/10/26 14:29:50;;;;;;;1.90;0.77;;;;;;;;;;5063461;28;20077;-77
2021/10/26 14:32:20;;;;;;;3.83;1.00;;;;;;;;;;5066590;28;20056;-77
2021/10/26 14:34:49;;;;;;;2.67;0.80;;;;;;;;;;5070874;28;20492;-77
2021/10/26 14:37:22;;;;;;;1.23;0.73;;;;;;;;;;5067360;28;20429;-77
2021/10/26 14:53:16;;;;;;;2.55;0.70;;;;;;;;;;5058024;28;20113;-75
2021/10/26 14:58:25;;;;;;;1.35;0.75;;;;;;;;;;5060570;28;20167;-75
2021/10/26 15:00:52;;;;;;;1.13;0.68;;;;;;;;;;5065700;28;20056;-75
2021/10/26 15:03:18;;;;;;;1.95;0.88;;;;;;;;;;5067631;28;20056;-76
2021/10/26 15:05:45;;;;;;;2.25;0.68;;;;;;;;;;5063968;28;20500;-75
2021/10/26 15:08:12;;;;;;;2.92;0.80;;;;;;;;;;5068177;28;20075;-75
2021/10/26 15:10:49;;;;;;;0.98;0.50;;;;;;;;;;5062657;28;20113;-76
2021/10/26 15:13:19;;;;;;;3.00;0.80;;;;;;;;;;5060561;28;20130;-76
2021/10/26 15:15:47;;;;;;;1.35;0.60;;;;;;;;;;5063083;28;20025;-78